createdAt,value
2023-05-11T00:01:49.300Z,100263.48
2023-05-11T00:04:16.543Z,100265.58
2023-05-11T00:06:43.824Z,100262.13
2023-05-11T00:09:11.602Z,100265.04
2023-05-11T00:11:38.767Z,100263.83
2023-05-11T00:14:05.741Z,100260.11
2023-05-11T00:16:32.851Z,100263.48
2023-05-11T00:18:59.908Z,100261.64
2023-05-11T00:21:26.891Z,100262.95
2023-05-11T00:23:53.769Z,100266.92
2023-05-11T00:26:21.588Z,100263.23
2023-05-11T00:28:48.514Z,100263.80
2023-05-11T00:31:15.573Z,100266.81
2023-05-11T00:33:42.919Z,100268.20
2023-05-11T00:36:09.755Z,100268.34
2023-05-11T00:38:40.864Z,100273.86
2023-05-11T00:41:08.207Z,100270.98
2023-05-11T00:43:35.427Z,100272.89
2023-05-11T00:46:03.058Z,100268.41
2023-05-11T00:48:30.163Z,100270.11
2023-05-11T00:50:59.098Z,100266.48
2023-05-11T00:53:26.016Z,100268.17
2023-05-11T00:55:53.372Z,100269.72
2023-05-11T00:58:20.244Z,100273.19
2023-05-11T01:00:49.953Z,100272.70
2023-05-11T01:03:16.920Z,100269.27
2023-05-11T01:06:01.568Z,100270.50
2023-05-11T01:08:33.796Z,100271.52
2023-05-11T01:11:49.033Z,100267.38
2023-05-11T01:14:18.976Z,100266.92
2023-05-11T01:16:49.516Z,100262.23
2023-05-11T01:19:38.562Z,100265.14
2023-05-11T01:22:10.320Z,100263.88
2023-05-11T01:24:44.758Z,100264.80
2023-05-11T01:27:25.150Z,100259.81
2023-05-11T01:30:17.227Z,100259.55
2023-05-11T01:32:44.453Z,100257.55
2023-05-11T01:35:14.706Z,100258.81
2023-05-11T01:37:41.780Z,100255.55
2023-05-11T01:40:13.901Z,100259.84
2023-05-11T01:42:50.378Z,100254.73
2023-05-11T01:45:17.427Z,100252.95
2023-05-11T01:47:45.066Z,100250.58
2023-05-11T01:50:12.340Z,100257.55
2023-05-11T01:52:39.911Z,100255.68
2023-05-11T01:55:07.343Z,100256.56
2023-05-11T01:57:34.721Z,100260.29
2023-05-11T02:00:02.434Z,100261.84
2023-05-11T02:02:40.249Z,100263.09
2023-05-11T02:05:08.061Z,100262.36
2023-05-11T02:07:35.552Z,100261.79
2023-05-11T02:10:02.488Z,100260.89
2023-05-11T02:12:30.261Z,100259.79
2023-05-11T02:14:57.196Z,100257.78
2023-05-11T02:17:24.212Z,100261.02
2023-05-11T02:19:51.230Z,100258.58
2023-05-11T02:22:18.198Z,100260.89
2023-05-11T02:24:45.083Z,100260.71
2023-05-11T02:27:13.064Z,100259.96
2023-05-11T02:29:40.075Z,100259.36
2023-05-11T02:32:08.226Z,100259.72
2023-05-11T02:34:41.179Z,100263.06
2023-05-11T02:37:11.204Z,100261.76
2023-05-11T02:39:38.232Z,100259.34
2023-05-11T02:42:14.280Z,100264.13
2023-05-11T02:44:45.355Z,100262.23
2023-05-11T02:47:12.664Z,100269.38
2023-05-11T02:49:39.688Z,100268.14
2023-05-11T02:52:08.024Z,100268.62
2023-05-11T02:54:39.184Z,100271.11
2023-05-11T02:57:06.290Z,100270.77
2023-05-11T02:59:33.497Z,100277.13
2023-05-11T03:02:00.680Z,100279.15
2023-05-11T03:04:28.287Z,100279.98
2023-05-11T03:06:55.885Z,100282.82
2023-05-11T03:09:22.931Z,100285.71
2023-05-11T03:11:50.096Z,100285.54
2023-05-11T03:14:17.174Z,100285.56
2023-05-11T03:16:44.422Z,100285.15
2023-05-11T03:19:11.625Z,100286.92
2023-05-11T03:21:38.668Z,100284.80
2023-05-11T03:24:08.652Z,100284.52
2023-05-11T03:26:36.262Z,100290.15
2023-05-11T03:29:03.594Z,100292.28
2023-05-11T03:31:30.699Z,100295.30
2023-05-11T03:33:58.879Z,100298.33
2023-05-11T03:36:26.574Z,100298.75
2023-05-11T03:38:56.604Z,100301.25
2023-05-11T03:41:25.924Z,100304.83
2023-05-11T03:43:56.173Z,100305.14
2023-05-11T03:46:23.218Z,100311.77
2023-05-11T03:48:50.496Z,100313.26
2023-05-11T03:51:20.228Z,100311.98
2023-05-11T03:53:47.426Z,100313.33
2023-05-11T03:56:14.344Z,100312.26
2023-05-11T03:58:41.297Z,100311.61
2023-05-11T04:01:11.012Z,100313.88
2023-05-11T04:03:49.696Z,100314.84
2023-05-11T04:06:17.516Z,100314.81
2023-05-11T04:08:45.611Z,100319.23
2023-05-11T04:11:12.729Z,100316.02
2023-05-11T04:13:40.032Z,100317.03
2023-05-11T04:16:07.424Z,100313.70
2023-05-11T04:18:34.651Z,100315.36
2023-05-11T04:21:01.677Z,100316.96
2023-05-11T04:23:28.732Z,100319.98
2023-05-11T04:25:58.092Z,100324.66
2023-05-11T04:28:28.087Z,100323.98
2023-05-11T04:30:55.768Z,100324.81
2023-05-11T04:33:23.282Z,100328.39
2023-05-11T04:35:53.985Z,100329.98
2023-05-11T04:38:21.029Z,100335.27
2023-05-11T04:40:48.641Z,100335.31
2023-05-11T04:43:16.412Z,100337.23
2023-05-11T04:45:50.449Z,100334.51
2023-05-11T04:48:22.349Z,100338.75
2023-05-11T04:50:49.395Z,100337.20
2023-05-11T04:53:18.715Z,100334.10
2023-05-11T04:55:46.533Z,100331.54
2023-05-11T04:58:13.615Z,100330.89
2023-05-11T05:00:40.912Z,100330.69
2023-05-11T05:03:08.074Z,100329.50
2023-05-11T05:05:35.756Z,100327.63
2023-05-11T05:08:03.584Z,100324.13
2023-05-11T05:10:30.843Z,100323.30
2023-05-11T05:12:58.207Z,100324.90
2023-05-11T05:15:26.416Z,100323.58
2023-05-11T05:17:53.869Z,100322.88
2023-05-11T05:20:21.151Z,100320.65
2023-05-11T05:22:48.176Z,100319.17
2023-05-11T05:25:16.959Z,100324.73
2023-05-11T05:27:43.913Z,100321.94
2023-05-11T05:30:16.772Z,100321.21
2023-05-11T05:32:45.068Z,100325.29
2023-05-11T05:35:12.010Z,100319.80
2023-05-11T05:37:40.000Z,100315.41
2023-05-11T05:43:07.680Z,100308.00
2023-05-11T05:45:35.084Z,100313.80
2023-05-11T05:48:03.099Z,100303.71
2023-05-11T05:50:31.230Z,100313.13
2023-05-11T05:52:58.675Z,100309.66
2023-05-11T05:55:27.762Z,100311.84
2023-05-11T05:57:55.661Z,100312.89
2023-05-11T06:00:23.085Z,100315.41
2023-05-11T06:02:55.331Z,100314.02
2023-05-11T06:05:26.463Z,100314.34
2023-05-11T06:08:08.411Z,100314.76
2023-05-11T06:10:38.391Z,100314.27
2023-05-11T06:13:07.212Z,100309.03
2023-05-11T06:15:34.969Z,100311.80
2023-05-11T06:18:08.110Z,100304.77
2023-05-11T06:20:36.083Z,100305.59
2023-05-11T06:23:05.196Z,100314.54
2023-05-11T06:25:37.358Z,100314.34
2023-05-11T06:28:05.168Z,100311.77
2023-05-11T06:30:33.522Z,100313.67
2023-05-11T06:33:03.716Z,100310.23
2023-05-11T06:35:31.608Z,100304.67
2023-05-11T06:37:59.498Z,100305.77
2023-05-11T06:40:27.131Z,100314.08
2023-05-11T06:42:54.392Z,100315.57
2023-05-11T06:45:22.074Z,100313.80
2023-05-11T06:47:49.445Z,100313.78
2023-05-11T06:50:17.891Z,100316.05
2023-05-11T06:52:46.227Z,100316.84
2023-05-11T06:55:14.547Z,100317.91
2023-05-11T06:57:41.772Z,100311.14
2023-05-11T07:00:09.965Z,100310.89
2023-05-11T07:02:37.318Z,100304.59
2023-05-11T07:05:05.034Z,100301.89
2023-05-11T07:07:32.357Z,100303.96
2023-05-11T07:09:59.584Z,100308.86
2023-05-11T07:12:27.053Z,100308.87
2023-05-11T07:14:54.077Z,100309.32
2023-05-11T07:17:21.675Z,100306.84
2023-05-11T07:19:49.773Z,100305.54
2023-05-11T07:22:16.865Z,100303.79
2023-05-11T07:24:44.070Z,100299.66
2023-05-11T07:27:11.790Z,100309.95
2023-05-11T07:29:38.897Z,100306.73
2023-05-11T07:32:06.160Z,100308.45
2023-05-11T07:34:33.449Z,100305.81
2023-05-11T07:37:00.888Z,100300.84
2023-05-11T07:39:27.877Z,100303.19
2023-05-11T07:41:54.982Z,100301.29
2023-05-11T07:44:21.990Z,100304.25
2023-05-11T07:46:49.244Z,100310.73
2023-05-11T07:49:20.740Z,100315.52
2023-05-11T07:51:55.918Z,100307.89
2023-05-11T07:54:22.944Z,100299.69
2023-05-11T07:56:50.795Z,100298.14
2023-05-11T07:59:17.899Z,100300.49
2023-05-11T08:01:45.163Z,100297.80
2023-05-11T08:04:12.233Z,100295.11
2023-05-11T08:06:40.652Z,100289.45
2023-05-11T08:09:07.679Z,100298.08
2023-05-11T08:11:34.993Z,100298.08
2023-05-11T08:14:02.574Z,100293.55
2023-05-11T08:16:29.913Z,100294.92
2023-05-11T08:18:57.247Z,100288.49
2023-05-11T08:21:25.111Z,100281.79
2023-05-11T08:23:52.122Z,100279.37
2023-05-11T08:26:20.171Z,100280.77
2023-05-11T08:28:47.529Z,100275.16
2023-05-11T08:31:14.686Z,100286.02
2023-05-11T08:33:42.398Z,100283.50
2023-05-11T08:36:10.579Z,100282.73
2023-05-11T08:38:38.315Z,100291.75
2023-05-11T08:41:07.811Z,100290.31
2023-05-11T08:43:36.375Z,100292.17
2023-05-11T08:46:05.291Z,100295.30
2023-05-11T08:48:32.534Z,100289.04
2023-05-11T08:50:59.708Z,100291.39
2023-05-11T08:53:26.906Z,100291.57
2023-05-11T08:55:56.101Z,100292.66
2023-05-11T08:58:23.164Z,100289.19
2023-05-11T09:00:50.614Z,100287.89
2023-05-11T09:03:19.205Z,100285.29
2023-05-11T09:05:47.472Z,100289.80
2023-05-11T09:08:15.336Z,100291.02
2023-05-11T09:10:43.738Z,100288.00
2023-05-11T09:13:11.743Z,100284.85
2023-05-11T09:15:39.056Z,100280.31
2023-05-11T09:18:07.186Z,100281.27
2023-05-11T09:20:34.863Z,100273.05
2023-05-11T09:23:02.003Z,100277.43
2023-05-11T09:25:31.930Z,100272.98
2023-05-11T09:27:59.806Z,100273.89
2023-05-11T09:30:28.114Z,100276.15
2023-05-11T09:33:00.003Z,100274.09
2023-05-11T09:35:33.790Z,100278.20
2023-05-11T09:38:06.253Z,100275.60
2023-05-11T09:40:37.580Z,100280.50
2023-05-11T09:43:20.962Z,100278.08
2023-05-11T09:45:49.708Z,100280.96
2023-05-11T09:48:17.112Z,100277.34
2023-05-11T09:50:44.260Z,100283.96
2023-05-11T09:53:11.884Z,100275.50
2023-05-11T09:55:42.177Z,100274.05
2023-05-11T09:58:11.162Z,100277.71
2023-05-11T10:00:38.614Z,100273.88
2023-05-11T10:03:07.292Z,100267.40
